Time;durP1;ratioP1;P1;durP2;ratioP2;P2;SDS_P1;SDS_P2;PMS_P1;PMS_P2;Temp;Humidity;BMP_temperature;BMP_pressure;BME280_temperature;BME280_humidity;BME280_pressure;Samples;Min_cycle;Max_cycle;Signal;HPM_P1;HPM_P2
2022/02/06 00:01:43;0.00;0.00;0.62;0.00;0.00;0.62;4.00;1.93;;;21.00;26.80;;;;;;2249104;61;20397;-62
2022/02/06 00:04:28;0.00;0.00;0.62;0.00;0.00;0.62;3.80;2.00;;;21.00;26.80;;;;;;2249485;61;20433;-62
2022/02/06 00:07:14;0.00;0.00;0.62;0.00;0.00;0.62;2.43;1.60;;;21.00;26.80;;;;;;2249358;61;20666;-59
2022/02/06 00:09:58;0.00;0.00;0.62;0.00;0.00;0.62;2.73;1.50;;;21.00;26.80;;;;;;2249023;61;20408;-62
2022/02/06 00:12:43;0.00;0.00;0.62;0.00;0.00;0.62;2.60;1.50;;;21.00;26.80;;;;;;2249016;61;20388;-62
2022/02/06 00:15:27;0.00;0.00;0.62;0.00;0.00;0.62;3.80;2.03;;;21.00;26.80;;;;;;2249487;61;20433;-62
2022/02/06 00:18:11;0.00;0.00;0.62;0.00;0.00;0.62;2.17;1.50;;;21.00;26.70;;;;;;2249050;61;20384;-62
2022/02/06 00:21:00;0.00;0.00;0.62;0.00;0.00;0.62;2.70;1.60;;;21.00;26.80;;;;;;2249016;61;20368;-60
2022/02/06 00:23:52;0.00;0.00;0.62;0.00;0.00;0.62;2.13;1.60;;;21.10;26.80;;;;;;2251390;61;20425;-60
2022/02/06 00:26:43;0.00;0.00;0.62;0.00;0.00;0.62;4.07;2.10;;;21.00;26.70;;;;;;2249432;61;20393;-61
2022/02/06 00:32:49;0.00;0.00;0.62;0.00;0.00;0.62;2.10;1.10;;;21.00;26.80;;;;;;2248540;61;20376;-62
2022/02/06 00:41:25;0.00;0.00;0.62;0.00;0.00;0.62;2.40;1.17;;;21.00;26.70;;;;;;2245437;61;20588;-61
2022/02/06 00:44:09;0.00;0.00;0.62;0.00;0.00;0.62;2.93;1.50;;;21.00;26.70;;;;;;2245262;61;20737;-61
2022/02/06 00:46:57;0.00;0.00;0.62;0.00;0.00;0.62;2.03;0.90;;;21.10;26.80;;;;;;2244880;61;20753;-62
2022/02/06 00:49:44;0.00;0.00;0.62;0.00;0.00;0.62;3.40;1.83;;;21.00;26.70;;;;;;2248718;61;20392;-62
2022/02/06 00:52:39;0.00;0.00;0.62;0.00;0.00;0.62;3.00;1.73;;;21.10;26.80;;;;;;2249276;61;20441;-60
2022/02/06 00:55:24;0.00;0.00;0.62;0.00;0.00;0.62;1.80;1.10;;;21.10;26.80;;;;;;2249250;61;20421;-59
2022/02/06 00:58:10;0.00;0.00;0.62;0.00;0.00;0.62;2.10;1.50;;;21.00;26.70;;;;;;2249191;61;20393;-60
2022/02/06 01:00:55;0.00;0.00;0.62;0.00;0.00;0.62;2.33;1.70;;;21.10;26.80;;;;;;2248879;61;20372;-61
2022/02/06 01:03:40;0.00;0.00;0.62;0.00;0.00;0.62;1.90;1.27;;;21.10;26.80;;;;;;2249480;61;20776;-62
2022/02/06 01:06:24;0.00;0.00;0.62;0.00;0.00;0.62;2.40;1.53;;;21.10;26.80;;;;;;2249008;61;20400;-61
2022/02/06 01:09:09;0.00;0.00;0.62;0.00;0.00;0.62;2.03;1.20;;;21.10;26.90;;;;;;2248885;61;20721;-62
2022/02/06 01:11:55;0.00;0.00;0.62;0.00;0.00;0.62;4.53;1.10;;;21.10;26.80;;;;;;2249114;61;20365;-59
2022/02/06 01:15:28;0.00;0.00;0.62;0.00;0.00;0.62;1.90;1.23;;;21.10;26.80;;;;;;2249216;61;20388;-62
2022/02/06 01:17:58;0.00;0.00;0.62;0.00;0.00;0.62;2.30;1.33;;;21.10;26.80;;;;;;2249438;61;20416;-62
2022/02/06 01:20:47;0.00;0.00;0.62;0.00;0.00;0.62;1.90;1.23;;;21.10;26.80;;;;;;2249123;61;20369;-60
2022/02/06 01:26:49;0.00;0.00;0.62;0.00;0.00;0.62;2.53;1.30;;;21.10;26.80;;;;;;2250449;61;20771;-62
2022/02/06 01:32:24;0.00;0.00;0.62;0.00;0.00;0.62;2.07;1.27;;;21.10;26.80;;;;;;2249588;61;20380;-61
2022/02/06 01:35:14;0.00;0.00;0.62;0.00;0.00;0.62;1.70;1.00;;;21.10;26.80;;;;;;2249578;61;20377;-60
2022/02/06 01:41:11;0.00;0.00;0.62;0.00;0.00;0.62;1.93;0.97;;;21.10;26.80;;;;;;2245862;61;20432;-62
2022/02/06 01:44:04;0.00;0.00;0.62;0.00;0.00;0.62;1.90;1.10;;;21.10;26.80;;;;;;2246008;61;20764;-62
2022/02/06 02:23:05;0.00;0.00;0.62;0.00;0.00;0.62;1.80;1.03;;;20.60;25.50;;;;;;2248125;61;20764;-62
2022/02/06 02:26:28;0.00;0.00;0.62;0.00;0.00;0.62;1.70;0.90;;;20.50;25.40;;;;;;2245255;61;20397;-63
2022/02/06 02:44:51;0.00;0.00;0.62;0.00;0.00;0.62;1.87;1.00;;;20.00;25.60;;;;;;2250072;61;20382;-62
2022/02/06 02:47:15;0.00;0.00;0.62;0.00;0.00;0.62;1.87;1.43;;;19.90;25.70;;;;;;2249632;61;20600;-62
2022/02/06 02:50:06;0.00;0.00;0.62;0.00;0.00;0.62;1.40;0.77;;;19.90;25.80;;;;;;2268486;61;20438;-62
2022/02/06 03:01:36;0.00;0.00;0.62;0.00;0.00;0.62;1.90;1.00;;;19.60;26.20;;;;;;2249506;61;20724;-61
2022/02/06 03:04:21;0.00;0.00;0.62;0.00;0.00;0.62;1.30;0.80;;;19.50;26.30;;;;;;2249620;61;20365;-62
2022/02/06 03:07:06;0.00;0.00;0.62;0.00;0.00;0.62;2.73;1.20;;;19.50;26.30;;;;;;2249541;61;20408;-62
2022/02/06 03:09:51;0.00;0.00;0.62;0.00;0.00;0.62;3.50;1.03;;;19.50;26.30;;;;;;2249514;61;20357;-62
2022/02/06 03:12:36;0.00;0.00;0.62;0.00;0.00;0.62;1.70;1.30;;;19.40;26.20;;;;;;2249654;61;20836;-61
2022/02/06 03:15:35;0.00;0.00;0.62;0.00;0.00;0.62;1.90;1.10;;;19.30;26.10;;;;;;2249050;61;20402;-62
2022/02/06 03:18:23;0.00;0.00;0.62;0.00;0.00;0.62;1.50;0.90;;;19.30;26.10;;;;;;2249481;61;20356;-62
2022/02/06 03:21:10;0.00;0.00;0.62;0.00;0.00;0.62;1.83;1.03;;;19.20;26.80;;;;;;2249251;61;20397;-62
2022/02/06 03:23:58;0.00;0.00;0.62;0.00;0.00;0.62;2.07;0.90;;;19.20;26.30;;;;;;2249713;61;20440;-62
2022/02/06 03:26:45;0.00;0.00;0.62;0.00;0.00;0.62;1.90;0.90;;;19.10;26.40;;;;;;2249456;61;20422;-61
2022/02/06 03:29:30;0.00;0.00;0.62;0.00;0.00;0.62;1.33;0.80;;;19.10;26.50;;;;;;2249319;61;20369;-62
2022/02/06 03:32:14;0.00;0.00;0.62;0.00;0.00;0.62;2.13;0.90;;;19.10;26.50;;;;;;2249418;61;20697;-62
2022/02/06 03:35:00;0.00;0.00;0.62;0.00;0.00;0.62;1.90;1.30;;;19.00;27.10;;;;;;2249631;61;20404;-61
2022/02/06 03:37:44;0.00;0.00;0.62;0.00;0.00;0.62;1.43;0.80;;;19.00;26.60;;;;;;2247463;61;20761;-61
2022/02/06 03:40:34;0.00;0.00;0.62;0.00;0.00;0.62;2.17;1.10;;;18.90;26.70;;;;;;2245471;61;20357;-62
2022/02/06 03:43:36;0.00;0.00;0.62;0.00;0.00;0.62;2.17;1.00;;;18.90;26.70;;;;;;2245116;61;20426;-62
2022/02/06 03:46:31;0.00;0.00;0.62;0.00;0.00;0.62;1.80;1.03;;;18.80;26.80;;;;;;2245237;61;20393;-62
2022/02/06 03:49:27;0.00;0.00;0.62;0.00;0.00;0.62;1.97;1.07;;;18.80;26.90;;;;;;2247946;61;20381;-61
2022/02/06 03:52:12;0.00;0.00;0.62;0.00;0.00;0.62;1.40;1.00;;;18.80;26.90;;;;;;2249144;61;20388;-62
2022/02/06 03:54:57;0.00;0.00;0.62;0.00;0.00;0.62;1.93;1.03;;;18.70;26.90;;;;;;2249256;61;20396;-63
2022/02/06 03:57:42;0.00;0.00;0.62;0.00;0.00;0.62;1.87;0.80;;;18.70;27.00;;;;;;2249479;61;20469;-62
2022/02/06 04:00:28;0.00;0.00;0.62;0.00;0.00;0.62;4.40;1.10;;;18.60;27.00;;;;;;2249322;61;20412;-62
2022/02/06 04:03:13;0.00;0.00;0.62;0.00;0.00;0.62;1.70;1.00;;;18.60;27.10;;;;;;2249342;61;20441;-62
2022/02/06 04:05:58;0.00;0.00;0.62;0.00;0.00;0.62;1.70;1.00;;;18.60;27.20;;;;;;2248816;61;20451;-62
2022/02/06 04:08:43;0.00;0.00;0.62;0.00;0.00;0.62;2.53;1.03;;;18.50;27.10;;;;;;2249437;61;20397;-60
2022/02/06 04:11:47;0.00;0.00;0.62;0.00;0.00;0.62;1.90;1.00;;;18.50;27.20;;;;;;2251779;61;20392;-62
2022/02/06 04:14:41;0.00;0.00;0.62;0.00;0.00;0.62;2.00;0.97;;;18.50;27.20;;;;;;2248965;61;20410;-62
2022/02/06 04:17:30;0.00;0.00;0.62;0.00;0.00;0.62;1.90;1.10;;;18.50;27.30;;;;;;2249281;61;20596;-62
2022/02/06 04:20:14;0.00;0.00;0.62;0.00;0.00;0.62;1.80;1.00;;;18.50;27.30;;;;;;2249106;61;20369;-62
2022/02/06 04:22:59;0.00;0.00;0.62;0.00;0.00;0.62;2.27;1.43;;;18.40;27.30;;;;;;2249457;61;20368;-62
2022/02/06 04:25:43;0.00;0.00;0.62;0.00;0.00;0.62;2.93;1.03;;;18.40;27.40;;;;;;2249126;61;20396;-62
2022/02/06 04:28:28;0.00;0.00;0.62;0.00;0.00;0.62;1.67;0.87;;;18.40;27.40;;;;;;2249329;61;20436;-61
2022/02/06 04:31:12;0.00;0.00;0.62;0.00;0.00;0.62;1.90;0.97;;;18.40;27.40;;;;;;2249414;61;20412;-60
2022/02/06 04:33:58;0.00;0.00;0.62;0.00;0.00;0.62;2.00;1.20;;;18.40;27.50;;;;;;2249377;61;20400;-60
2022/02/06 04:36:52;0.00;0.00;0.62;0.00;0.00;0.62;1.30;0.80;;;18.30;27.50;;;;;;2251178;61;20400;-62
2022/02/06 04:54:45;0.00;0.00;0.62;0.00;0.00;0.62;1.87;1.07;;;18.20;27.70;;;;;;2248995;61;20408;-60
2022/02/06 05:21:30;0.00;0.00;0.62;0.00;0.00;0.62;1.70;1.00;;;18.00;28.10;;;;;;2248988;61;20372;-61
2022/02/06 05:27:28;0.00;0.00;0.62;0.00;0.00;0.62;1.83;0.90;;;18.00;28.10;;;;;;2248896;61;20483;-60
2022/02/06 05:30:17;0.00;0.00;0.62;0.00;0.00;0.62;1.53;1.00;;;18.00;28.10;;;;;;2249017;61;20364;-60
2022/02/06 05:33:03;0.00;0.00;0.62;0.00;0.00;0.62;1.63;0.90;;;17.90;28.10;;;;;;2249247;61;20581;-60
2022/02/06 05:35:47;0.00;0.00;0.62;0.00;0.00;0.62;2.23;1.53;;;17.90;28.10;;;;;;2248880;61;20375;-62
2022/02/06 05:38:32;0.00;0.00;0.62;0.00;0.00;0.62;4.30;1.03;;;17.90;28.10;;;;;;2245714;61;20370;-62
2022/02/06 05:41:17;0.00;0.00;0.62;0.00;0.00;0.62;1.50;0.97;;;17.90;28.20;;;;;;2245426;61;20385;-62
2022/02/06 05:44:03;0.00;0.00;0.62;0.00;0.00;0.62;2.87;1.30;;;17.90;28.30;;;;;;2245143;61;20366;-62
2022/02/06 05:46:48;0.00;0.00;0.62;0.00;0.00;0.62;1.70;1.00;;;17.80;28.30;;;;;;2244885;61;20444;-61
2022/02/06 05:49:33;0.00;0.00;0.62;0.00;0.00;0.62;2.30;1.10;;;17.80;28.30;;;;;;2248425;61;20368;-62
2022/02/06 05:52:18;0.00;0.00;0.62;0.00;0.00;0.62;2.37;1.10;;;17.80;28.40;;;;;;2248991;61;20436;-62
2022/02/06 05:55:05;0.00;0.00;0.62;0.00;0.00;0.62;1.30;0.90;;;17.80;28.40;;;;;;2249196;61;20734;-61
2022/02/06 05:57:51;0.00;0.00;0.62;0.00;0.00;0.62;1.30;0.90;;;17.80;28.40;;;;;;2248981;61;20757;-60
2022/02/06 06:00:36;0.00;0.00;0.62;0.00;0.00;0.62;2.30;1.20;;;17.80;28.50;;;;;;2248783;61;20364;-63
2022/02/06 06:03:21;0.00;0.00;0.62;0.00;0.00;0.62;2.20;0.90;;;17.80;28.50;;;;;;2249296;61;20401;-62
2022/02/06 06:06:05;0.00;0.00;0.62;0.00;0.00;0.62;1.87;1.03;;;17.80;28.60;;;;;;2248530;61;20452;-61
2022/02/06 06:08:50;0.00;0.00;0.62;0.00;0.00;0.62;1.73;1.23;;;17.80;28.60;;;;;;2248894;61;20393;-60
2022/02/06 06:11:35;0.00;0.00;0.62;0.00;0.00;0.62;1.77;1.00;;;17.70;28.50;;;;;;2249570;61;20582;-61
2022/02/06 06:14:20;0.00;0.00;0.62;0.00;0.00;0.62;1.40;1.00;;;17.70;28.60;;;;;;2250055;61;20360;-60
2022/02/06 06:17:05;0.00;0.00;0.62;0.00;0.00;0.62;1.80;1.07;;;17.70;28.60;;;;;;2249663;61;20588;-60
2022/02/06 06:19:50;0.00;0.00;0.62;0.00;0.00;0.62;3.63;1.43;;;17.70;28.60;;;;;;2249277;61;20361;-63
2022/02/06 06:22:34;0.00;0.00;0.62;0.00;0.00;0.62;2.30;1.17;;;17.70;28.60;;;;;;2249720;61;20361;-62
2022/02/06 06:25:19;0.00;0.00;0.62;0.00;0.00;0.62;2.60;1.30;;;17.70;28.70;;;;;;2249759;61;20384;-62
2022/02/06 06:28:04;0.00;0.00;0.62;0.00;0.00;0.62;1.70;1.00;;;17.70;28.70;;;;;;2249339;61;20485;-61
2022/02/06 06:30:50;0.00;0.00;0.62;0.00;0.00;0.62;1.93;1.20;;;17.70;28.70;;;;;;2252036;61;20381;-61
2022/02/06 06:33:35;0.00;0.00;0.62;0.00;0.00;0.62;1.60;1.17;;;17.70;28.80;;;;;;2249257;61;20384;-62
2022/02/06 06:36:22;0.00;0.00;0.62;0.00;0.00;0.62;2.10;1.23;;;17.70;28.80;;;;;;2249718;61;20642;-62
2022/02/06 06:39:07;0.00;0.00;0.62;0.00;0.00;0.62;2.63;1.10;;;17.60;28.80;;;;;;2478353;53;20393;-62
2022/02/06 06:41:51;0.00;0.00;0.62;0.00;0.00;0.62;1.60;1.20;;;17.60;28.80;;;;;;2245523;61;20389;-62
2022/02/06 06:44:37;0.00;0.00;0.62;0.00;0.00;0.62;1.67;1.00;;;17.60;28.80;;;;;;2245582;61;20361;-63
2022/02/06 06:47:24;0.00;0.00;0.62;0.00;0.00;0.62;1.43;1.00;;;17.60;28.80;;;;;;2245804;61;20415;-60
2022/02/06 06:50:09;0.00;0.00;0.62;0.00;0.00;0.62;2.10;1.20;;;17.60;28.80;;;;;;2247105;58;20720;-60
2022/02/06 06:52:54;0.00;0.00;0.62;0.00;0.00;0.62;2.03;0.97;;;17.60;28.80;;;;;;2245146;61;20361;-62
2022/02/06 06:55:41;0.00;0.00;0.62;0.00;0.00;0.62;2.90;1.23;;;17.60;28.80;;;;;;2245286;61;20732;-61
2022/02/06 06:58:30;0.00;0.00;0.62;0.00;0.00;0.62;1.87;1.03;;;17.60;28.80;;;;;;2245892;61;20430;-61
2022/02/06 07:04:10;0.00;0.00;0.62;0.00;0.00;0.62;1.97;1.00;;;17.60;28.90;;;;;;2245489;61;20790;-59
2022/02/06 07:06:55;0.00;0.00;0.62;0.00;0.00;0.62;2.67;1.00;;;17.50;28.80;;;;;;2245072;61;20457;-62
2022/02/06 07:09:40;0.00;0.00;0.62;0.00;0.00;0.62;1.70;1.00;;;17.50;28.80;;;;;;2245695;61;20361;-62
2022/02/06 07:12:24;0.00;0.00;0.62;0.00;0.00;0.62;1.87;1.03;;;17.50;28.80;;;;;;2244937;61;20405;-62
2022/02/06 07:15:09;0.00;0.00;0.62;0.00;0.00;0.62;1.43;0.90;;;17.50;28.90;;;;;;2245472;61;20405;-63
2022/02/06 07:17:54;0.00;0.00;0.62;0.00;0.00;0.62;2.00;1.00;;;17.40;28.90;;;;;;2245134;61;20381;-62
2022/02/06 07:20:40;0.00;0.00;0.62;0.00;0.00;0.62;1.50;0.90;;;17.40;28.90;;;;;;2245767;61;20405;-60
2022/02/06 07:23:25;0.00;0.00;0.62;0.00;0.00;0.62;1.30;0.90;;;17.40;29.00;;;;;;2245400;61;20365;-62
2022/02/06 07:26:16;0.00;0.00;0.62;0.00;0.00;0.62;2.17;1.00;;;17.40;29.10;;;;;;2245437;61;20397;-62
2022/02/06 07:29:02;0.00;0.00;0.62;0.00;0.00;0.62;1.40;0.80;;;17.40;29.10;;;;;;2245469;61;20410;-61
2022/02/06 07:31:47;0.00;0.00;0.62;0.00;0.00;0.62;1.40;0.93;;;17.40;29.10;;;;;;2245530;61;20438;-60
2022/02/06 07:34:32;0.00;0.00;0.62;0.00;0.00;0.62;2.10;1.40;;;17.40;29.20;;;;;;2245265;61;20482;-62
2022/02/06 07:37:17;0.00;0.00;0.62;0.00;0.00;0.62;3.20;1.10;;;17.40;29.20;;;;;;2246339;61;20388;-62
2022/02/06 07:40:03;0.00;0.00;0.62;0.00;0.00;0.62;2.03;1.13;;;17.40;29.20;;;;;;2249297;61;20438;-61
2022/02/06 07:42:48;0.00;0.00;0.62;0.00;0.00;0.62;1.67;1.07;;;17.40;29.20;;;;;;2249632;61;20400;-62
2022/02/06 07:45:40;0.00;0.00;0.62;0.00;0.00;0.62;1.90;1.03;;;17.30;29.20;;;;;;2251555;61;20396;-61
2022/02/06 07:48:25;0.00;0.00;0.62;0.00;0.00;0.62;1.43;0.97;;;17.30;29.30;;;;;;2248777;61;20393;-61
2022/02/06 07:51:10;0.00;0.00;0.62;0.00;0.00;0.62;2.50;0.87;;;17.30;29.30;;;;;;2249452;61;20360;-60
2022/02/06 07:53:55;0.00;0.00;0.62;0.00;0.00;0.62;1.60;0.90;;;17.30;29.40;;;;;;2249522;61;20373;-61
2022/02/06 07:56:40;0.00;0.00;0.62;0.00;0.00;0.62;2.23;1.00;;;17.30;29.40;;;;;;2249179;61;20433;-63
2022/02/06 07:59:24;0.00;0.00;0.62;0.00;0.00;0.62;1.40;0.90;;;17.30;29.50;;;;;;2249163;61;20626;-62
2022/02/06 08:02:10;0.00;0.00;0.62;0.00;0.00;0.62;1.63;1.10;;;17.30;29.50;;;;;;2249530;61;20744;-61
2022/02/06 08:04:56;0.00;0.00;0.62;0.00;0.00;0.62;2.87;1.00;;;17.30;29.60;;;;;;2249560;61;20715;-62
2022/02/06 08:07:43;0.00;0.00;0.62;0.00;0.00;0.62;1.60;1.10;;;17.30;29.60;;;;;;2249022;61;20472;-62
2022/02/06 08:10:29;0.00;0.00;0.62;0.00;0.00;0.62;1.60;1.10;;;17.30;29.70;;;;;;2249512;61;20384;-62
2022/02/06 08:13:24;0.00;0.00;0.62;0.00;0.00;0.62;4.13;1.00;;;17.30;29.70;;;;;;2249180;61;20841;-62
2022/02/06 08:16:09;0.00;0.00;0.62;0.00;0.00;0.62;2.43;1.10;;;17.30;29.80;;;;;;2249424;61;20420;-61
2022/02/06 08:18:55;0.00;0.00;0.62;0.00;0.00;0.62;2.23;1.03;;;17.30;29.80;;;;;;2249128;61;20375;-61
2022/02/06 08:21:39;0.00;0.00;0.62;0.00;0.00;0.62;1.93;1.00;;;17.30;29.90;;;;;;2249115;61;20432;-62
2022/02/06 08:24:24;0.00;0.00;0.62;0.00;0.00;0.62;4.50;1.60;;;17.30;29.90;;;;;;2249362;61;20364;-60
2022/02/06 08:27:10;0.00;0.00;0.62;0.00;0.00;0.62;1.57;0.90;;;17.30;30.00;;;;;;2249373;61;20392;-61
2022/02/06 08:29:55;0.00;0.00;0.62;0.00;0.00;0.62;1.87;1.00;;;17.30;30.00;;;;;;2249391;61;20364;-62
2022/02/06 08:32:41;0.00;0.00;0.62;0.00;0.00;0.62;1.47;0.87;;;17.30;30.00;;;;;;2249119;61;20595;-63
2022/02/06 08:35:26;0.00;0.00;0.62;0.00;0.00;0.62;1.20;0.70;;;17.30;30.00;;;;;;2249081;61;20353;-64
2022/02/06 08:38:11;0.00;0.00;0.62;0.00;0.00;0.62;1.30;0.80;;;17.30;29.90;;;;;;2246931;61;20412;-62
2022/02/06 08:40:56;0.00;0.00;0.62;0.00;0.00;0.62;1.60;0.90;;;17.30;29.80;;;;;;2244898;61;20830;-62
2022/02/06 08:43:41;0.00;0.00;0.62;0.00;0.00;0.62;1.60;0.70;;;17.40;29.90;;;;;;2245131;61;20769;-62
2022/02/06 08:46:27;0.00;0.00;0.62;0.00;0.00;0.62;1.40;0.90;;;17.40;29.80;;;;;;2245319;61;20431;-61
2022/02/06 08:49:11;0.00;0.00;0.62;0.00;0.00;0.62;1.20;0.70;;;17.50;29.90;;;;;;2247932;61;20640;-60
2022/02/06 08:51:56;0.00;0.00;0.62;0.00;0.00;0.62;1.53;0.80;;;17.50;29.80;;;;;;2249305;61;20400;-61
2022/02/06 08:54:41;0.00;0.00;0.62;0.00;0.00;0.62;1.70;0.97;;;17.60;29.80;;;;;;2248923;61;20449;-62
2022/02/06 08:57:26;0.00;0.00;0.62;0.00;0.00;0.62;1.30;0.70;;;17.60;29.70;;;;;;2249183;61;20594;-59
2022/02/06 09:00:14;0.00;0.00;0.62;0.00;0.00;0.62;1.30;0.70;;;17.70;29.70;;;;;;2251750;61;20389;-61
2022/02/06 09:02:59;0.00;0.00;0.62;0.00;0.00;0.62;1.30;0.70;;;17.70;29.70;;;;;;2248808;61;20744;-61
2022/02/06 09:05:43;0.00;0.00;0.62;0.00;0.00;0.62;1.47;0.80;;;17.70;29.60;;;;;;2248938;61;20393;-61
2022/02/06 09:08:29;0.00;0.00;0.62;0.00;0.00;0.62;1.80;0.80;;;17.80;29.60;;;;;;2249423;61;20359;-60
2022/02/06 09:11:14;0.00;0.00;0.62;0.00;0.00;0.62;1.40;0.80;;;17.80;29.60;;;;;;2249125;61;20407;-60
2022/02/06 09:13:59;0.00;0.00;0.62;0.00;0.00;0.62;2.47;0.80;;;17.90;29.60;;;;;;2249133;61;20588;-61
2022/02/06 09:16:45;0.00;0.00;0.62;0.00;0.00;0.62;1.43;0.70;;;18.00;29.60;;;;;;2248958;61;20381;-59
2022/02/06 09:19:31;0.00;0.00;0.62;0.00;0.00;0.62;1.70;0.90;;;18.00;29.70;;;;;;2249308;61;20619;-60
2022/02/06 09:22:16;0.00;0.00;0.62;0.00;0.00;0.62;1.60;0.90;;;18.00;29.50;;;;;;2249343;61;20365;-61
2022/02/06 09:25:00;0.00;0.00;0.62;0.00;0.00;0.62;1.60;0.80;;;18.10;29.60;;;;;;2248591;61;20360;-60
2022/02/06 09:27:45;0.00;0.00;0.62;0.00;0.00;0.62;1.30;0.70;;;18.10;29.50;;;;;;2249120;61;20408;-61
2022/02/06 09:30:30;0.00;0.00;0.62;0.00;0.00;0.62;1.40;0.70;;;18.10;29.50;;;;;;2249603;61;20400;-60
2022/02/06 09:36:01;0.00;0.00;0.62;0.00;0.00;0.62;1.50;0.80;;;18.20;29.50;;;;;;2249091;61;20636;-60
2022/02/06 09:38:46;0.00;0.00;0.62;0.00;0.00;0.62;1.40;0.83;;;18.30;29.60;;;;;;2245184;61;20590;-60
2022/02/06 09:41:31;0.00;0.00;0.62;0.00;0.00;0.62;3.63;0.73;;;18.30;29.50;;;;;;2245560;61;20405;-59
2022/02/06 09:44:16;0.00;0.00;0.62;0.00;0.00;0.62;1.57;0.60;;;18.30;29.50;;;;;;2245377;61;20361;-60
2022/02/06 09:47:02;0.00;0.00;0.62;0.00;0.00;0.62;1.80;0.90;;;18.40;29.50;;;;;;2245472;61;20401;-59
2022/02/06 09:49:49;0.00;0.00;0.62;0.00;0.00;0.62;1.40;0.70;;;18.40;29.50;;;;;;2249652;61;20477;-59
2022/02/06 09:52:38;0.00;0.00;0.62;0.00;0.00;0.62;1.57;0.80;;;18.50;29.60;;;;;;2249989;61;20368;-59
2022/02/06 09:55:23;0.00;0.00;0.62;0.00;0.00;0.62;1.30;0.70;;;18.50;29.50;;;;;;2249791;61;20562;-60
2022/02/06 09:59:18;0.00;0.00;0.62;0.00;0.00;0.62;1.60;0.90;;;18.50;29.50;;;;;;2249798;61;20753;-61
2022/02/06 10:01:23;0.00;0.00;0.62;0.00;0.00;0.62;1.30;0.80;;;18.60;29.60;;;;;;2249234;61;20372;-61
2022/02/06 10:04:09;0.00;0.00;0.62;0.00;0.00;0.62;1.30;0.80;;;18.60;29.60;;;;;;2249739;61;20369;-61
2022/02/06 10:07:03;0.00;0.00;0.62;0.00;0.00;0.62;2.00;0.87;;;18.60;29.50;;;;;;2249753;61;20435;-62
2022/02/06 10:09:54;0.00;0.00;0.62;0.00;0.00;0.62;1.40;0.87;;;18.70;29.60;;;;;;2249562;61;20368;-60
2022/02/06 10:12:42;0.00;0.00;0.62;0.00;0.00;0.62;1.37;0.77;;;18.70;29.50;;;;;;2249701;61;20465;-60
2022/02/06 10:15:27;0.00;0.00;0.62;0.00;0.00;0.62;1.30;0.77;;;18.70;29.50;;;;;;2249387;61;20724;-61
2022/02/06 10:18:11;0.00;0.00;0.62;0.00;0.00;0.62;1.30;0.70;;;18.80;29.60;;;;;;2250016;61;20432;-60
2022/02/06 10:20:56;0.00;0.00;0.62;0.00;0.00;0.62;1.20;0.70;;;18.80;29.60;;;;;;2249584;61;20706;-62
2022/02/06 10:23:49;0.00;0.00;0.62;0.00;0.00;0.62;1.37;0.80;;;18.80;29.60;;;;;;2249778;61;20724;-61
2022/02/06 10:26:41;0.00;0.00;0.62;0.00;0.00;0.62;1.50;0.80;;;18.80;29.50;;;;;;2249583;61;20458;-61
2022/02/06 10:29:37;0.00;0.00;0.62;0.00;0.00;0.62;1.30;0.80;;;18.90;30.00;;;;;;2249679;61;20584;-61
2022/02/06 10:32:22;0.00;0.00;0.62;0.00;0.00;0.62;1.23;0.67;;;18.90;29.60;;;;;;2249500;61;20360;-61
2022/02/06 10:35:10;0.00;0.00;0.62;0.00;0.00;0.62;4.43;0.80;;;18.90;29.50;;;;;;2249369;61;20713;-61
2022/02/06 10:37:55;0.00;0.00;0.62;0.00;0.00;0.62;1.30;0.70;;;19.00;29.60;;;;;;2247271;61;20818;-60
2022/02/06 10:40:41;0.00;0.00;0.62;0.00;0.00;0.62;1.50;0.90;;;19.00;29.60;;;;;;2246024;61;20368;-61
2022/02/06 10:43:25;0.00;0.00;0.62;0.00;0.00;0.62;1.57;0.70;;;19.00;29.60;;;;;;2245464;61;20366;-61
2022/02/06 10:46:12;0.00;0.00;0.62;0.00;0.00;0.62;2.50;0.90;;;19.00;29.50;;;;;;2245412;61;20424;-61
2022/02/06 10:48:59;0.00;0.00;0.62;0.00;0.00;0.62;1.40;0.73;;;19.10;29.60;;;;;;2247807;61;20618;-61
2022/02/06 10:51:51;0.00;0.00;0.62;0.00;0.00;0.62;1.37;0.77;;;19.10;29.60;;;;;;2249798;61;20398;-61
2022/02/06 10:54:38;0.00;0.00;0.62;0.00;0.00;0.62;1.50;0.77;;;19.10;30.00;;;;;;2249387;61;20740;-61
2022/02/06 10:57:25;0.00;0.00;0.62;0.00;0.00;0.62;1.40;0.90;;;19.10;29.50;;;;;;2249373;61;20580;-61
2022/02/06 11:00:10;0.00;0.00;0.62;0.00;0.00;0.62;2.70;0.80;;;19.10;29.50;;;;;;2249400;61;20380;-61
2022/02/06 11:03:04;0.00;0.00;0.62;0.00;0.00;0.62;1.70;1.00;;;19.20;29.60;;;;;;2249881;61;20621;-61
2022/02/06 11:05:54;0.00;0.00;0.62;0.00;0.00;0.62;1.50;0.87;;;19.20;29.50;;;;;;2249443;61;20792;-61
2022/02/06 11:08:39;0.00;0.00;0.62;0.00;0.00;0.62;1.70;0.87;;;19.20;29.50;;;;;;2249318;61;20587;-61
2022/02/06 11:11:32;0.00;0.00;0.62;0.00;0.00;0.62;1.67;0.70;;;19.20;29.50;;;;;;2249386;61;20792;-61
2022/02/06 11:14:24;0.00;0.00;0.62;0.00;0.00;0.62;1.20;0.67;;;19.30;29.50;;;;;;2249777;61;20360;-60
2022/02/06 11:17:16;0.00;0.00;0.62;0.00;0.00;0.62;1.70;1.23;;;19.30;29.50;;;;;;2249552;61;20373;-61
2022/02/06 11:20:06;0.00;0.00;0.62;0.00;0.00;0.62;1.60;0.80;;;19.30;29.50;;;;;;2249436;61;20380;-61
2022/02/06 11:22:58;0.00;0.00;0.62;0.00;0.00;0.62;1.60;0.80;;;19.30;29.50;;;;;;2249671;61;20381;-61
2022/02/06 11:25:43;0.00;0.00;0.62;0.00;0.00;0.62;1.40;0.77;;;19.30;29.40;;;;;;2249143;61;20424;-62
2022/02/06 11:28:29;0.00;0.00;0.62;0.00;0.00;0.62;1.30;0.60;;;19.40;29.50;;;;;;2249763;61;20365;-60
2022/02/06 11:31:16;0.00;0.00;0.62;0.00;0.00;0.62;1.60;0.87;;;19.40;29.50;;;;;;2542944;46;20365;-60
2022/02/06 11:34:01;0.00;0.00;0.62;0.00;0.00;0.62;1.30;0.70;;;19.40;29.40;;;;;;2244844;61;20368;-60
2022/02/06 11:43:54;0.00;0.00;0.62;0.00;0.00;0.62;2.40;1.60;;;19.40;29.40;;;;;;2249323;61;20375;-62
2022/02/06 11:46:51;0.00;0.00;0.62;0.00;0.00;0.62;4.40;2.20;;;19.40;29.40;;;;;;2249254;61;20401;-61
2022/02/06 11:49:39;0.00;0.00;0.62;0.00;0.00;0.62;2.70;2.10;;;19.50;29.40;;;;;;2248832;61;20752;-61
2022/02/06 11:52:48;0.00;0.00;0.62;0.00;0.00;0.62;2.67;1.80;;;19.50;29.40;;;;;;2249394;61;20365;-61
2022/02/06 11:55:36;0.00;0.00;0.62;0.00;0.00;0.62;2.93;2.20;;;19.50;29.40;;;;;;2249205;61;20393;-61
2022/02/06 11:58:31;0.00;0.00;0.62;0.00;0.00;0.62;3.10;1.73;;;19.50;29.30;;;;;;2249751;61;20590;-61
2022/02/06 12:01:25;0.00;0.00;0.62;0.00;0.00;0.62;2.10;1.80;;;19.60;29.40;;;;;;2249222;61;20408;-61
2022/02/06 12:04:21;0.00;0.00;0.62;0.00;0.00;0.62;2.00;1.37;;;19.50;29.30;;;;;;2249388;61;20364;-61
2022/02/06 12:07:05;0.00;0.00;0.62;0.00;0.00;0.62;2.47;1.40;;;19.60;29.30;;;;;;2248714;61;20504;-61
2022/02/06 12:09:51;0.00;0.00;0.62;0.00;0.00;0.62;2.40;1.70;;;19.60;29.30;;;;;;2249251;61;20364;-61
2022/02/06 12:12:37;0.00;0.00;0.62;0.00;0.00;0.62;2.03;1.43;;;19.60;29.30;;;;;;2249499;61;20433;-61
2022/02/06 12:15:34;0.00;0.00;0.62;0.00;0.00;0.62;1.90;1.20;;;19.60;29.80;;;;;;2248772;61;20389;-60
2022/02/06 12:18:25;0.00;0.00;0.62;0.00;0.00;0.62;2.17;1.50;;;19.60;29.30;;;;;;2249418;61;20377;-60
2022/02/06 12:21:14;0.00;0.00;0.62;0.00;0.00;0.62;2.40;1.63;;;19.60;29.30;;;;;;2249404;61;20627;-60
2022/02/06 12:24:01;0.00;0.00;0.62;0.00;0.00;0.62;2.03;1.33;;;19.70;29.30;;;;;;2249458;61;20377;-62
2022/02/06 12:26:46;0.00;0.00;0.62;0.00;0.00;0.62;1.70;1.00;;;19.70;29.30;;;;;;2249307;61;20400;-60
2022/02/06 12:29:39;0.00;0.00;0.62;0.00;0.00;0.62;2.00;1.23;;;19.70;29.30;;;;;;2249188;61;20597;-62
2022/02/06 12:32:32;0.00;0.00;0.62;0.00;0.00;0.62;1.73;1.00;;;19.70;29.30;;;;;;2249257;61;20365;-61
2022/02/06 12:38:21;0.00;0.00;0.62;0.00;0.00;0.62;2.57;1.30;;;19.70;29.20;;;;;;2248449;61;20372;-60
2022/02/06 12:41:18;0.00;0.00;0.62;0.00;0.00;0.62;1.47;0.97;;;19.70;29.20;;;;;;2248663;61;20364;-62
2022/02/06 12:44:07;0.00;0.00;0.62;0.00;0.00;0.62;1.80;1.17;;;19.70;29.20;;;;;;2248769;61;20361;-61
2022/02/06 12:46:55;0.00;0.00;0.62;0.00;0.00;0.62;2.57;1.63;;;19.70;29.20;;;;;;2248969;61;20803;-62
2022/02/06 12:49:41;0.00;0.00;0.62;0.00;0.00;0.62;2.80;1.37;;;19.70;29.20;;;;;;2248946;61;20355;-63
2022/02/06 12:52:34;0.00;0.00;0.62;0.00;0.00;0.62;2.80;1.60;;;19.70;29.20;;;;;;2249458;61;20406;-60
2022/02/06 12:55:22;0.00;0.00;0.62;0.00;0.00;0.62;2.47;1.07;;;19.70;29.30;;;;;;2248819;61;20361;-62
2022/02/06 12:58:08;0.00;0.00;0.62;0.00;0.00;0.62;2.57;1.57;;;19.70;29.20;;;;;;2249364;61;20732;-61
2022/02/06 13:00:55;0.00;0.00;0.62;0.00;0.00;0.62;2.60;1.67;;;19.80;29.30;;;;;;2249481;61;20384;-61
2022/02/06 13:03:42;0.00;0.00;0.62;0.00;0.00;0.62;2.57;1.30;;;19.80;29.30;;;;;;2249189;61;20375;-61
2022/02/06 13:06:33;0.00;0.00;0.62;0.00;0.00;0.62;1.93;1.20;;;19.80;29.40;;;;;;2249085;61;20404;-61
2022/02/06 13:09:24;0.00;0.00;0.62;0.00;0.00;0.62;2.00;1.20;;;19.80;29.40;;;;;;2249247;61;20373;-62
2022/02/06 13:12:27;0.00;0.00;0.62;0.00;0.00;0.62;2.47;1.07;;;19.80;29.30;;;;;;2249383;61;20368;-60
2022/02/06 13:18:29;0.00;0.00;0.62;0.00;0.00;0.62;1.57;0.93;;;19.90;29.40;;;;;;2249064;61;20757;-61
2022/02/06 13:21:26;0.00;0.00;0.62;0.00;0.00;0.62;1.87;1.00;;;19.90;29.40;;;;;;2249396;61;20433;-61